Time;durP1;ratioP1;P1;durP2;ratioP2;P2;SDS_P1;SDS_P2;PMS_P1;PMS_P2;Temp;Humidity;BMP_temperature;BMP_pressure;BME280_temperature;BME280_humidity;BME280_pressure;Samples;Min_cycle;Max_cycle;Signal;HPM_P1;HPM_P2
2022/01/30 00:02:12;;;;;;;;;;;5.70;99.90;;;;;;5116319;28;19946;-72
2022/01/30 00:04:38;;;;;;;;;;;5.70;99.90;;;;;;5098584;28;20434;-72
2022/01/30 00:07:03;;;;;;;;;;;5.70;99.90;;;;;;5116389;28;20031;-73
2022/01/30 00:09:29;;;;;;;;;;;5.70;99.90;;;;;;5116265;28;20023;-73
2022/01/30 00:11:58;;;;;;;;;;;6.80;99.90;;;;;;5116242;28;19924;-72
2022/01/30 00:14:26;;;;;;;;;;;5.80;99.90;;;;;;5116219;28;19924;-73
2022/01/30 00:17:00;;;;;;;;;;;5.60;99.90;;;;;;5098084;28;19930;-73
2022/01/30 00:19:38;;;;;;;;;;;5.50;99.90;;;;;;5116317;28;19978;-73
2022/01/30 00:24:56;;;;;;;;;;;6.20;99.90;;;;;;5115893;28;19969;-73
2022/01/30 00:27:30;;;;;;;;;;;7.10;99.90;;;;;;5097749;28;19924;-73
2022/01/30 00:29:55;;;;;;;;;;;6.60;99.90;;;;;;5116037;28;19928;-72
2022/01/30 00:32:21;;;;;;;;;;;6.10;99.90;;;;;;5115946;28;19924;-73
2022/01/30 00:34:47;;;;;;;;;;;5.60;99.90;;;;;;5115899;28;19927;-73
2022/01/30 00:37:12;;;;;;;;;;;5.60;99.90;;;;;;5115702;28;20336;-73
2022/01/30 00:39:38;;;;;;;;;;;7.00;99.90;;;;;;5097322;28;19930;-72
2022/01/30 00:42:03;;;;;;;;;;;5.60;99.90;;;;;;5097635;28;19931;-73
2022/01/30 00:44:30;;;;;;;;;;;5.50;99.90;;;;;;5115825;28;19930;-72
2022/01/30 00:46:56;;;;;;;;;;;5.50;99.90;;;;;;5115701;28;20018;-72
2022/01/30 00:49:22;;;;;;;;;;;6.50;99.90;;;;;;5115520;28;19924;-72
2022/01/30 00:51:47;;;;;;;;;;;6.70;99.90;;;;;;5115425;28;19923;-72
2022/01/30 00:54:13;;;;;;;;;;;5.50;99.90;;;;;;5115158;28;20015;-73
2022/01/30 00:56:39;;;;;;;;;;;6.80;99.90;;;;;;5115242;28;19924;-72
2022/01/30 00:59:04;;;;;;;;;;;5.50;99.90;;;;;;5097569;28;19924;-72
2022/01/30 01:01:32;;;;;;;;;;;6.20;99.90;;;;;;5097384;28;19927;-72
2022/01/30 01:03:57;;;;;;;;;;;5.50;99.90;;;;;;5115275;28;19927;-72
2022/01/30 01:06:23;;;;;;;;;;;6.30;99.90;;;;;;5115161;28;19930;-73
2022/01/30 01:08:53;;;;;;;;;;;5.90;99.90;;;;;;5115162;28;19924;-73
2022/01/30 01:14:07;;;;;;;;;;;6.60;99.90;;;;;;5115183;28;19930;-73
2022/01/30 01:24:45;;;;;;;;;;;5.20;99.90;;;;;;5114886;28;19992;-73
2022/01/30 01:27:10;;;;;;;;;;;5.20;99.90;;;;;;5114884;28;20264;-72
2022/01/30 01:29:37;;;;;;;;;;;5.20;99.90;;;;;;5114858;28;19932;-72
2022/01/30 01:32:03;;;;;;;;;;;5.30;99.90;;;;;;5114673;28;19923;-74
2022/01/30 01:34:33;;;;;;;;;;;5.20;99.90;;;;;;5114516;28;19924;-72
2022/01/30 01:36:58;;;;;;;;;;;5.40;99.90;;;;;;5114638;28;19938;-73
2022/01/30 01:39:24;;;;;;;;;;;5.40;99.90;;;;;;5114575;28;20006;-72
2022/01/30 01:41:50;;;;;;;;;;;6.00;99.90;;;;;;5114582;28;19923;-73
2022/01/30 01:44:28;;;;;;;;;;;5.50;99.90;;;;;;5114591;28;20010;-73
2022/01/30 01:46:54;;;;;;;;;;;4.20;99.90;;;;;;5114421;28;19938;-74
2022/01/30 01:49:26;;;;;;;;;;;5.50;99.90;;;;;;5114347;28;20022;-73
2022/01/30 01:52:14;;;;;;;;;;;5.60;99.90;;;;;;5114365;28;20409;-73
2022/01/30 01:54:37;;;;;;;;;;;5.60;99.90;;;;;;5114347;28;19923;-73
2022/01/30 01:57:03;;;;;;;;;;;6.20;99.90;;;;;;5114302;28;20394;-73
2022/01/30 01:59:28;;;;;;;;;;;5.50;99.90;;;;;;5114361;28;19923;-73
2022/01/30 02:01:54;;;;;;;;;;;5.40;99.90;;;;;;5114187;28;19924;-73
2022/01/30 02:04:20;;;;;;;;;;;5.30;99.90;;;;;;5114364;28;19969;-73
2022/01/30 02:06:46;;;;;;;;;;;5.30;99.90;;;;;;5114335;28;19939;-73
2022/01/30 02:09:13;;;;;;;;;;;6.50;99.90;;;;;;5114274;28;19930;-73
2022/01/30 02:11:43;;;;;;;;;;;5.30;99.90;;;;;;5114074;28;19924;-73
2022/01/30 02:25:01;;;;;;;;;;;5.20;99.90;;;;;;5113849;28;19924;-73
2022/01/30 02:27:33;;;;;;;;;;;5.20;99.90;;;;;;5096030;28;20367;-73
2022/01/30 02:29:59;;;;;;;;;;;5.30;99.90;;;;;;5114053;28;19968;-74
2022/01/30 02:32:25;;;;;;;;;;;5.70;99.90;;;;;;5095837;28;19924;-73
2022/01/30 02:34:51;;;;;;;;;;;5.20;99.90;;;;;;5096035;28;20023;-72
2022/01/30 02:37:17;;;;;;;;;;;6.70;99.90;;;;;;5113773;28;20030;-74
2022/01/30 02:39:43;;;;;;;;;;;5.30;99.90;;;;;;5113727;28;19935;-73
2022/01/30 02:42:13;;;;;;;;;;;5.30;99.90;;;;;;5113762;28;19923;-73
2022/01/30 02:44:41;;;;;;;;;;;5.60;99.90;;;;;;5113760;28;20328;-72
2022/01/30 02:47:09;;;;;;;;;;;4.40;99.90;;;;;;5113880;28;19932;-72
2022/01/30 02:49:45;;;;;;;;;;;5.30;99.90;;;;;;5113783;28;19931;-73
2022/01/30 02:52:12;;;;;;;;;;;5.40;99.90;;;;;;5113513;28;19982;-72
2022/01/30 02:54:39;;;;;;;;;;;7.00;99.90;;;;;;5113835;28;19931;-72
2022/01/30 02:57:04;;;;;;;;;;;5.30;99.90;;;;;;5095942;28;19924;-73
2022/01/30 02:59:31;;;;;;;;;;;5.40;99.90;;;;;;5095981;28;19923;-73
2022/01/30 03:01:56;;;;;;;;;;;5.90;99.90;;;;;;5113675;28;19935;-72
2022/01/30 03:04:22;;;;;;;;;;;5.60;99.90;;;;;;5113637;28;19923;-73
2022/01/30 03:06:47;;;;;;;;;;;5.30;99.90;;;;;;5113438;28;19930;-73
2022/01/30 03:09:13;;;;;;;;;;;6.10;99.90;;;;;;5095660;28;19979;-72
2022/01/30 03:11:38;;;;;;;;;;;5.60;99.90;;;;;;5113785;28;20044;-73
2022/01/30 03:14:05;;;;;;;;;;;5.40;99.90;;;;;;5113639;28;19930;-73
2022/01/30 03:16:31;;;;;;;;;;;5.50;99.90;;;;;;5113588;28;19924;-72
2022/01/30 03:18:56;;;;;;;;;;;6.70;99.90;;;;;;5113509;28;19981;-72
2022/01/30 03:21:22;;;;;;;;;;;5.50;99.90;;;;;;5095247;28;19972;-72
2022/01/30 03:23:48;;;;;;;;;;;5.50;99.90;;;;;;5095579;28;19947;-72
2022/01/30 03:26:14;;;;;;;;;;;6.30;99.90;;;;;;5097075;28;19924;-72
2022/01/30 03:28:42;;;;;;;;;;;5.60;99.90;;;;;;5117270;28;19924;-73
2022/01/30 03:31:10;;;;;;;;;;;6.00;99.90;;;;;;5117161;28;19924;-72
2022/01/30 03:33:36;;;;;;;;;;;6.50;99.90;;;;;;5099225;28;19946;-72
2022/01/30 03:36:02;;;;;;;;;;;5.60;99.90;;;;;;5098821;28;20386;-73
2022/01/30 03:38:28;;;;;;;;;;;5.50;99.90;;;;;;5116669;28;19924;-72
2022/01/30 03:40:53;;;;;;;;;;;5.50;99.90;;;;;;5117078;28;19924;-72
2022/01/30 03:43:19;;;;;;;;;;;5.90;99.90;;;;;;5116935;28;20398;-73
2022/01/30 03:45:45;;;;;;;;;;;5.60;99.90;;;;;;5116906;28;19930;-73
2022/01/30 03:48:12;;;;;;;;;;;5.60;99.90;;;;;;5116787;28;19977;-72
2022/01/30 03:50:38;;;;;;;;;;;6.30;99.90;;;;;;5116613;28;19932;-72
2022/01/30 03:53:04;;;;;;;;;;;5.60;99.90;;;;;;5116523;28;19946;-72
2022/01/30 03:55:30;;;;;;;;;;;5.90;99.90;;;;;;5095073;28;19994;-72
2022/01/30 03:57:55;;;;;;;;;;;5.60;99.90;;;;;;5096064;28;20403;-72
2022/01/30 04:00:21;;;;;;;;;;;5.60;99.90;;;;;;5096209;28;19963;-72
2022/01/30 04:02:47;;;;;;;;;;;5.70;99.90;;;;;;5095259;28;19930;-74
2022/01/30 04:05:13;;;;;;;;;;;5.70;99.90;;;;;;5094778;28;20373;-72
2022/01/30 04:07:38;;;;;;;;;;;5.70;99.90;;;;;;5095874;28;19924;-73
2022/01/30 04:10:05;;;;;;;;;;;5.70;99.90;;;;;;5095781;28;20256;-73
2022/01/30 04:12:31;;;;;;;;;;;5.70;99.90;;;;;;5095939;28;19930;-72
2022/01/30 04:14:56;;;;;;;;;;;5.70;99.90;;;;;;5095846;28;19928;-72
2022/01/30 04:17:22;;;;;;;;;;;5.70;99.90;;;;;;5095783;28;20013;-72
2022/01/30 04:19:48;;;;;;;;;;;5.80;99.90;;;;;;5095778;28;20060;-72
2022/01/30 04:22:13;;;;;;;;;;;6.30;99.90;;;;;;5128856;27;19969;-72
2022/01/30 04:24:39;;;;;;;;;;;5.80;99.90;;;;;;5094558;28;19924;-72
2022/01/30 04:27:05;;;;;;;;;;;5.80;99.90;;;;;;5095727;28;19924;-72
2022/01/30 04:29:30;;;;;;;;;;;5.80;99.90;;;;;;5095678;28;20015;-73
2022/01/30 04:31:56;;;;;;;;;;;5.80;99.90;;;;;;5095558;28;20026;-72
2022/01/30 04:34:23;;;;;;;;;;;5.80;99.90;;;;;;5095494;28;19925;-72
2022/01/30 04:37:02;;;;;;;;;;;6.90;99.90;;;;;;5094887;28;19985;-74
2022/01/30 04:53:38;;;;;;;;;;;5.80;99.90;;;;;;5032680;28;19925;-72
2022/01/30 05:01:15;;;;;;;;;;;5.70;99.90;;;;;;5032561;28;19979;-72
2022/01/30 05:03:58;;;;;;;;;;;5.70;99.90;;;;;;5032635;28;20336;-72
2022/01/30 05:06:33;;;;;;;;;;;5.70;99.90;;;;;;5032554;28;19925;-73
2022/01/30 05:08:59;;;;;;;;;;;5.60;99.90;;;;;;5032424;28;19925;-73
2022/01/30 05:11:25;;;;;;;;;;;5.60;99.90;;;;;;5032282;28;20068;-72
2022/01/30 05:13:51;;;;;;;;;;;5.50;99.90;;;;;;5032350;28;20407;-73
2022/01/30 05:16:19;;;;;;;;;;;5.50;99.90;;;;;;5016211;28;20075;-73
2022/01/30 05:18:44;;;;;;;;;;;5.50;99.90;;;;;;5015896;28;20015;-73
2022/01/30 05:21:10;;;;;;;;;;;5.40;99.90;;;;;;5032189;28;20012;-73
2022/01/30 05:23:36;;;;;;;;;;;5.40;99.90;;;;;;5032163;28;20477;-72
2022/01/30 05:26:06;;;;;;;;;;;5.40;99.90;;;;;;5032112;28;19925;-73
2022/01/30 05:28:31;;;;;;;;;;;5.30;99.90;;;;;;5092808;28;19924;-72
2022/01/30 05:30:57;;;;;;;;;;;5.30;99.90;;;;;;5094253;28;19931;-75
2022/01/30 05:33:23;;;;;;;;;;;5.30;99.90;;;;;;5094417;28;19931;-73
2022/01/30 05:35:49;;;;;;;;;;;5.30;99.90;;;;;;5093322;28;20431;-73
2022/01/30 05:38:14;;;;;;;;;;;5.30;99.90;;;;;;5094373;28;20367;-73
2022/01/30 05:40:40;;;;;;;;;;;5.30;99.90;;;;;;5094119;28;19934;-73
2022/01/30 05:43:06;;;;;;;;;;;5.30;99.90;;;;;;5094126;28;19977;-74
2022/01/30 05:45:44;;;;;;;;;;;5.30;99.90;;;;;;5093374;28;19930;-73
2022/01/30 05:48:15;;;;;;;;;;;5.40;99.90;;;;;;5093552;28;20452;-73
2022/01/30 05:50:42;;;;;;;;;;;5.40;99.90;;;;;;5093859;28;19928;-72
2022/01/30 05:53:07;;;;;;;;;;;4.40;99.90;;;;;;5092996;28;20327;-73
2022/01/30 05:55:33;;;;;;;;;;;5.40;99.90;;;;;;5110758;28;19971;-72
2022/01/30 05:57:59;;;;;;;;;;;5.40;99.90;;;;;;5114382;28;19979;-73
2022/01/30 06:00:24;;;;;;;;;;;5.30;99.90;;;;;;5114179;28;19930;-73
2022/01/30 06:02:50;;;;;;;;;;;5.30;99.90;;;;;;5071475;28;19924;-73
2022/01/30 06:05:17;;;;;;;;;;;6.60;99.90;;;;;;5055005;28;19999;-73
2022/01/30 06:08:11;;;;;;;;;;;4.50;99.90;;;;;;5071475;28;19974;-73
2022/01/30 06:10:32;;;;;;;;;;;5.20;99.90;;;;;;5071161;28;19925;-73
2022/01/30 06:12:57;;;;;;;;;;;5.10;99.90;;;;;;5071368;28;19925;-73
2022/01/30 06:15:23;;;;;;;;;;;7.10;99.90;;;;;;5071529;28;19924;-73
2022/01/30 06:17:48;;;;;;;;;;;4.60;99.90;;;;;;5071318;28;19931;-74
2022/01/30 06:20:14;;;;;;;;;;;5.10;99.90;;;;;;5054571;28;19932;-74
2022/01/30 06:22:40;;;;;;;;;;;5.00;99.90;;;;;;5071227;28;19932;-73
2022/01/30 06:25:06;;;;;;;;;;;5.40;99.90;;;;;;5071302;28;19924;-72
2022/01/30 06:27:31;;;;;;;;;;;5.00;99.90;;;;;;5071240;28;19931;-73
2022/01/30 06:29:57;;;;;;;;;;;5.00;99.90;;;;;;5054640;28;19924;-74
2022/01/30 06:32:23;;;;;;;;;;;5.50;99.90;;;;;;5071220;28;19924;-73
2022/01/30 06:34:48;;;;;;;;;;;4.80;99.90;;;;;;5110143;28;19927;-72
2022/01/30 06:37:14;;;;;;;;;;;4.80;99.90;;;;;;5113993;28;20390;-72
2022/01/30 06:39:40;;;;;;;;;;;4.80;99.90;;;;;;5113986;28;19931;-73
2022/01/30 06:42:06;;;;;;;;;;;4.80;99.90;;;;;;5095905;28;19924;-72
2022/01/30 06:44:32;;;;;;;;;;;4.90;99.90;;;;;;5113903;28;19977;-72
2022/01/30 06:46:57;;;;;;;;;;;5.30;99.90;;;;;;5113799;28;19923;-74
2022/01/30 06:49:23;;;;;;;;;;;5.40;99.90;;;;;;5113754;28;19924;-72
2022/01/30 06:51:48;;;;;;;;;;;4.70;99.90;;;;;;5113630;28;19935;-73
2022/01/30 06:54:14;;;;;;;;;;;4.90;99.90;;;;;;5095713;28;19924;-73
2022/01/30 06:56:40;;;;;;;;;;;4.90;99.90;;;;;;5113786;28;19970;-73
2022/01/30 06:59:06;;;;;;;;;;;4.80;99.90;;;;;;5113727;28;19923;-72
2022/01/30 07:01:31;;;;;;;;;;;4.60;99.90;;;;;;5117269;28;20351;-73
2022/01/30 07:03:57;;;;;;;;;;;4.70;99.90;;;;;;5117537;28;19931;-72
2022/01/30 07:06:22;;;;;;;;;;;4.90;99.90;;;;;;5117432;28;19924;-73
2022/01/30 07:08:48;;;;;;;;;;;5.30;99.90;;;;;;5117553;28;19931;-75
2022/01/30 07:11:15;;;;;;;;;;;6.10;99.90;;;;;;5117442;28;20393;-74
2022/01/30 07:13:41;;;;;;;;;;;4.80;99.90;;;;;;5117490;28;19967;-73
2022/01/30 07:16:06;;;;;;;;;;;6.10;99.90;;;;;;5117477;28;20403;-73
2022/01/30 07:18:32;;;;;;;;;;;4.70;99.90;;;;;;5117050;28;19924;-73
2022/01/30 07:20:57;;;;;;;;;;;5.60;99.90;;;;;;5117117;28;19924;-73
2022/01/30 07:23:23;;;;;;;;;;;5.10;99.90;;;;;;5117291;28;19931;-73
2022/01/30 07:25:49;;;;;;;;;;;5.20;99.90;;;;;;5117219;28;19928;-73
2022/01/30 07:28:14;;;;;;;;;;;6.40;99.90;;;;;;5117206;28;19924;-73
2022/01/30 07:30:40;;;;;;;;;;;5.50;99.90;;;;;;5098873;28;19928;-72
2022/01/30 07:33:05;;;;;;;;;;;5.10;99.90;;;;;;5117114;28;20014;-73
2022/01/30 07:35:33;;;;;;;;;;;6.00;99.90;;;;;;5116968;28;19924;-73
2022/01/30 07:37:59;;;;;;;;;;;6.10;99.90;;;;;;5116997;28;20297;-73
2022/01/30 07:40:24;;;;;;;;;;;5.20;99.90;;;;;;5117028;28;19923;-73
2022/01/30 07:42:50;;;;;;;;;;;5.50;99.90;;;;;;5098886;28;20032;-74
2022/01/30 07:45:16;;;;;;;;;;;6.20;99.90;;;;;;5116852;28;19924;-74
2022/01/30 07:47:41;;;;;;;;;;;5.40;99.90;;;;;;5116697;28;19924;-73
2022/01/30 07:50:07;;;;;;;;;;;6.70;99.90;;;;;;5116586;28;19924;-73
2022/01/30 07:52:33;;;;;;;;;;;5.10;99.90;;;;;;5116493;28;19923;-73
2022/01/30 07:54:58;;;;;;;;;;;5.10;99.90;;;;;;5115773;28;19924;-73
2022/01/30 07:57:24;;;;;;;;;;;5.10;99.90;;;;;;5116317;28;20014;-73
2022/01/30 07:59:49;;;;;;;;;;;5.20;99.90;;;;;;5098522;28;19924;-74
2022/01/30 08:02:15;;;;;;;;;;;5.20;99.90;;;;;;5116480;28;20324;-74
2022/01/30 08:04:41;;;;;;;;;;;5.20;99.90;;;;;;5116014;28;19967;-74
2022/01/30 08:07:07;;;;;;;;;;;6.40;99.90;;;;;;5116224;28;19973;-72
2022/01/30 08:09:32;;;;;;;;;;;5.20;99.90;;;;;;5116463;28;19924;-72
2022/01/30 08:11:58;;;;;;;;;;;6.50;99.90;;;;;;5097327;28;20405;-73
2022/01/30 08:14:23;;;;;;;;;;;6.20;99.90;;;;;;5116095;28;19975;-73
2022/01/30 08:16:49;;;;;;;;;;;5.60;99.90;;;;;;5116197;28;19923;-73
2022/01/30 08:19:15;;;;;;;;;;;5.40;99.90;;;;;;5116126;28;20394;-74
2022/01/30 08:21:41;;;;;;;;;;;5.70;99.90;;;;;;5116127;28;19924;-73
2022/01/30 08:24:07;;;;;;;;;;;5.20;99.90;;;;;;5115863;28;20317;-73
2022/01/30 08:26:32;;;;;;;;;;;6.30;99.90;;;;;;5116039;28;19924;-73
2022/01/30 08:28:58;;;;;;;;;;;5.20;99.90;;;;;;5097779;28;19923;-73
2022/01/30 08:31:23;;;;;;;;;;;7.00;99.90;;;;;;5116017;28;19923;-74
2022/01/30 08:33:49;;;;;;;;;;;5.30;99.90;;;;;;5115967;28;19974;-74
2022/01/30 08:36:14;;;;;;;;;;;5.80;99.90;;;;;;5097798;28;19924;-73
2022/01/30 08:38:40;;;;;;;;;;;6.50;99.90;;;;;;5115524;28;19935;-72
2022/01/30 08:41:05;;;;;;;;;;;5.50;99.90;;;;;;5115957;28;19924;-73
2022/01/30 08:43:31;;;;;;;;;;;5.80;99.90;;;;;;5115885;28;19924;-72
2022/01/30 08:45:58;;;;;;;;;;;7.00;99.90;;;;;;5115887;28;19935;-72
2022/01/30 08:48:24;;;;;;;;;;;6.20;99.90;;;;;;5115558;28;19976;-73
2022/01/30 08:50:50;;;;;;;;;;;6.20;99.90;;;;;;5115420;28;20018;-73
2022/01/30 08:53:15;;;;;;;;;;;5.90;99.90;;;;;;5097352;28;20018;-75
2022/01/30 08:55:41;;;;;;;;;;;5.40;99.90;;;;;;5097083;28;19924;-74
2022/01/30 08:58:10;;;;;;;;;;;5.40;99.90;;;;;;5115482;28;20379;-73
2022/01/30 09:00:36;;;;;;;;;;;6.20;99.90;;;;;;5097429;28;19969;-74
2022/01/30 09:03:03;;;;;;;;;;;5.40;99.90;;;;;;5115288;28;20422;-74
2022/01/30 09:05:30;;;;;;;;;;;5.80;99.90;;;;;;5115288;28;19930;-73
2022/01/30 09:07:56;;;;;;;;;;;5.40;99.90;;;;;;5115064;28;19977;-73
2022/01/30 09:10:21;;;;;;;;;;;5.40;99.90;;;;;;5115166;28;19930;-73
2022/01/30 09:12:47;;;;;;;;;;;5.70;99.90;;;;;;5115264;28;19924;-73
2022/01/30 09:15:15;;;;;;;;;;;6.20;99.90;;;;;;5115319;28;19924;-74
2022/01/30 09:17:40;;;;;;;;;;;5.40;99.90;;;;;;5097170;28;20447;-74
2022/01/30 09:20:06;;;;;;;;;;;5.50;99.90;;;;;;5096902;28;19924;-73
2022/01/30 09:22:32;;;;;;;;;;;5.60;99.90;;;;;;5114747;28;19924;-72
2022/01/30 09:24:58;;;;;;;;;;;5.60;99.90;;;;;;5114592;28;19947;-73
2022/01/30 09:27:23;;;;;;;;;;;5.80;99.90;;;;;;5114962;28;19976;-72
2022/01/30 09:29:49;;;;;;;;;;;5.90;99.90;;;;;;5114911;28;19927;-73
2022/01/30 09:32:14;;;;;;;;;;;5.80;99.90;;;;;;5096490;28;19942;-74
2022/01/30 09:34:40;;;;;;;;;;;6.00;99.90;;;;;;5114715;28;20026;-73
2022/01/30 09:37:06;;;;;;;;;;;6.40;99.90;;;;;;5114640;28;20011;-73
2022/01/30 09:39:31;;;;;;;;;;;5.60;99.90;;;;;;5114239;28;20302;-73
2022/01/30 09:41:57;;;;;;;;;;;6.30;99.90;;;;;;5114776;28;19924;-72
2022/01/30 09:44:23;;;;;;;;;;;6.70;99.90;;;;;;5114622;28;19924;-73
2022/01/30 09:46:50;;;;;;;;;;;5.80;99.90;;;;;;5114550;28;19923;-73
2022/01/30 09:49:16;;;;;;;;;;;6.70;99.90;;;;;;5096598;28;19974;-74
2022/01/30 09:51:45;;;;;;;;;;;5.90;99.90;;;;;;5114369;28;19937;-73
2022/01/30 09:54:12;;;;;;;;;;;4.40;99.90;;;;;;5113341;28;20315;-73
2022/01/30 09:56:38;;;;;;;;;;;5.90;99.90;;;;;;5114352;28;20290;-74
2022/01/30 09:59:05;;;;;;;;;;;5.90;99.90;;;;;;5114457;28;19931;-72
2022/01/30 10:01:33;;;;;;;;;;;5.70;99.90;;;;;;5114345;28;19923;-73
2022/01/30 10:03:59;;;;;;;;;;;7.10;99.90;;;;;;5114332;28;19959;-73
2022/01/30 10:06:30;;;;;;;;;;;6.30;99.90;;;;;;5114140;28;19928;-72
2022/01/30 10:08:57;;;;;;;;;;;6.90;99.90;;;;;;5114112;28;19947;-73
2022/01/30 10:11:31;;;;;;;;;;;6.00;99.90;;;;;;5114360;28;19924;-73
2022/01/30 10:14:10;;;;;;;;;;;6.50;99.90;;;;;;5096106;28;19931;-74
2022/01/30 10:16:40;;;;;;;;;;;6.00;99.90;;;;;;5114214;28;19924;-72
2022/01/30 10:19:13;;;;;;;;;;;6.60;99.90;;;;;;5114063;28;19924;-73
2022/01/30 10:21:39;;;;;;;;;;;6.00;99.90;;;;;;5113879;28;19969;-72
2022/01/30 10:24:25;;;;;;;;;;;6.00;99.90;;;;;;5114128;28;19924;-72
2022/01/30 10:26:56;;;;;;;;;;;6.10;99.90;;;;;;5095220;28;19931;-73
2022/01/30 10:29:22;;;;;;;;;;;6.60;99.90;;;;;;5096102;28;19930;-73
2022/01/30 10:32:07;;;;;;;;;;;6.50;99.90;;;;;;5095846;28;20298;-73
2022/01/30 10:34:34;;;;;;;;;;;6.20;99.90;;;;;;5096434;28;19931;-72
2022/01/30 10:37:15;;;;;;;;;;;6.20;99.90;;;;;;5118081;28;19924;-73
2022/01/30 10:39:54;;;;;;;;;;;6.20;99.90;;;;;;5118078;28;19987;-73
2022/01/30 10:42:39;;;;;;;;;;;6.20;99.90;;;;;;5118021;28;19924;-73
2022/01/30 10:45:08;;;;;;;;;;;6.30;99.90;;;;;;5117882;28;20271;-73
2022/01/30 10:47:35;;;;;;;;;;;6.70;99.90;;;;;;5118065;28;19945;-74
2022/01/30 10:50:02;;;;;;;;;;;6.30;99.90;;;;;;5117922;28;19924;-73
2022/01/30 10:52:30;;;;;;;;;;;6.40;99.90;;;;;;5117764;28;19924;-74
2022/01/30 10:55:03;;;;;;;;;;;6.40;99.90;;;;;;5117856;28;20022;-73
2022/01/30 10:57:28;;;;;;;;;;;6.30;99.90;;;;;;5117555;28;19931;-73
2022/01/30 10:59:56;;;;;;;;;;;6.40;99.90;;;;;;5117817;28;19924;-73
2022/01/30 11:02:23;;;;;;;;;;;4.80;99.90;;;;;;5099863;28;20298;-73
2022/01/30 11:04:49;;;;;;;;;;;6.30;99.90;;;;;;5117358;28;19923;-73
2022/01/30 11:07:17;;;;;;;;;;;6.30;99.90;;;;;;5116747;28;19923;-73
2022/01/30 11:10:15;;;;;;;;;;;6.30;99.90;;;;;;5098694;28;19986;-73
2022/01/30 11:12:56;;;;;;;;;;;6.30;99.90;;;;;;5117241;28;19931;-73
2022/01/30 11:15:35;;;;;;;;;;;7.80;99.90;;;;;;5117359;28;19924;-73
2022/01/30 11:18:05;;;;;;;;;;;6.30;99.90;;;;;;5098895;28;19923;-73
2022/01/30 11:20:32;;;;;;;;;;;6.40;99.90;;;;;;5116886;28;19928;-73
2022/01/30 11:23:02;;;;;;;;;;;6.40;99.90;;;;;;5098908;28;19924;-74
2022/01/30 11:25:35;;;;;;;;;;;6.50;99.90;;;;;;5116932;28;19924;-73
2022/01/30 11:28:04;;;;;;;;;;;6.50;99.90;;;;;;5117014;28;19924;-73
2022/01/30 11:30:33;;;;;;;;;;;6.50;99.90;;;;;;5098512;28;20022;-73
2022/01/30 11:32:59;;;;;;;;;;;6.50;99.90;;;;;;5116651;28;20496;-74
2022/01/30 11:35:26;;;;;;;;;;;7.20;99.90;;;;;;5116632;28;19936;-73
2022/01/30 11:37:52;;;;;;;;;;;6.50;99.90;;;;;;5116691;28;19924;-73
2022/01/30 11:40:19;;;;;;;;;;;6.50;99.90;;;;;;5116921;28;20320;-74
2022/01/30 11:42:48;;;;;;;;;;;6.60;99.90;;;;;;5116695;28;19927;-73
2022/01/30 11:45:24;;;;;;;;;;;6.60;99.90;;;;;;5116579;28;20275;-72
2022/01/30 11:47:52;;;;;;;;;;;6.60;99.90;;;;;;5115173;28;20007;-73
2022/01/30 11:50:19;;;;;;;;;;;6.70;99.90;;;;;;5116699;28;20023;-73
2022/01/30 11:53:05;;;;;;;;;;;6.70;99.90;;;;;;5116535;28;19946;-75
2022/01/30 11:55:40;;;;;;;;;;;6.70;99.90;;;;;;5116194;28;19975;-73
2022/01/30 11:58:06;;;;;;;;;;;6.60;99.90;;;;;;5116136;28;19924;-72
2022/01/30 12:00:40;;;;;;;;;;;7.60;99.90;;;;;;5098488;28;20382;-73
2022/01/30 12:03:20;;;;;;;;;;;6.70;99.90;;;;;;5116341;28;19924;-73
2022/01/30 12:05:46;;;;;;;;;;;6.60;99.90;;;;;;5116247;28;20373;-74
2022/01/30 12:08:30;;;;;;;;;;;6.60;99.90;;;;;;5116157;28;19971;-73
2022/01/30 12:10:56;;;;;;;;;;;6.60;99.90;;;;;;5097785;28;20344;-73
2022/01/30 12:13:41;;;;;;;;;;;6.50;99.90;;;;;;5116166;28;19924;-74
2022/01/30 12:16:07;;;;;;;;;;;6.50;99.90;;;;;;5097829;28;19927;-74
2022/01/30 12:18:45;;;;;;;;;;;6.60;99.90;;;;;;5116116;28;20010;-73
2022/01/30 12:21:14;;;;;;;;;;;6.60;99.90;;;;;;5115779;28;20437;-73
2022/01/30 12:23:41;;;;;;;;;;;6.70;99.90;;;;;;5115984;28;20367;-73
2022/01/30 12:26:08;;;;;;;;;;;6.70;99.90;;;;;;5097718;28;19980;-73
2022/01/30 12:28:45;;;;;;;;;;;6.80;99.90;;;;;;5115876;28;19924;-74
2022/01/30 12:31:30;;;;;;;;;;;6.80;99.90;;;;;;5115687;28;19975;-73
2022/01/30 12:34:00;;;;;;;;;;;6.70;99.90;;;;;;5115544;28;20007;-75
2022/01/30 12:36:26;;;;;;;;;;;6.70;99.90;;;;;;5115805;28;20290;-73
2022/01/30 12:38:53;;;;;;;;;;;7.10;99.90;;;;;;5115677;28;19924;-73
2022/01/30 12:41:20;;;;;;;;;;;6.60;99.90;;;;;;5115565;28;19946;-73
2022/01/30 12:43:50;;;;;;;;;;;6.50;99.90;;;;;;5080326;28;20023;-75
2022/01/30 12:46:16;;;;;;;;;;;7.50;99.90;;;;;;5097263;28;19931;-74
2022/01/30 12:48:42;;;;;;;;;;;6.80;99.90;;;;;;5097352;28;20298;-73
2022/01/30 12:51:13;;;;;;;;;;;6.40;99.90;;;;;;5115490;28;19931;-73
2022/01/30 12:53:38;;;;;;;;;;;6.40;99.90;;;;;;5115137;28;19970;-73
2022/01/30 12:56:05;;;;;;;;;;;6.40;99.90;;;;;;5115400;28;20023;-75
2022/01/30 12:58:35;;;;;;;;;;;6.40;99.90;;;;;;5114779;28;19923;-73
2022/01/30 13:01:11;;;;;;;;;;;6.50;99.90;;;;;;5115011;28;19924;-72
2022/01/30 13:03:36;;;;;;;;;;;6.50;99.90;;;;;;5115243;28;20018;-73
2022/01/30 13:06:02;;;;;;;;;;;6.60;99.90;;;;;;5114974;28;19974;-72
2022/01/30 13:08:47;;;;;;;;;;;6.70;99.90;;;;;;5115041;28;19930;-75
2022/01/30 13:11:17;;;;;;;;;;;6.70;99.90;;;;;;5096721;28;19923;-75
2022/01/30 13:13:55;;;;;;;;;;;6.70;99.90;;;;;;5114894;28;19923;-74
2022/01/30 13:16:24;;;;;;;;;;;6.80;99.90;;;;;;5115087;28;20290;-74
2022/01/30 13:18:49;;;;;;;;;;;6.70;99.90;;;;;;5097128;28;20328;-74
2022/01/30 13:21:20;;;;;;;;;;;6.60;99.90;;;;;;5096996;28;19928;-74
2022/01/30 13:23:46;;;;;;;;;;;6.60;99.90;;;;;;5114770;28;20377;-74
2022/01/30 13:26:26;;;;;;;;;;;6.50;99.90;;;;;;5096572;28;19967;-74
2022/01/30 13:28:52;;;;;;;;;;;6.50;99.90;;;;;;5131215;27;19923;-73
2022/01/30 13:31:19;;;;;;;;;;;6.40;99.90;;;;;;5114599;28;19924;-74
2022/01/30 13:34:05;;;;;;;;;;;6.40;99.90;;;;;;5114307;28;19946;-74
2022/01/30 13:36:32;;;;;;;;;;;6.40;99.90;;;;;;5114430;28;19977;-73
2022/01/30 13:38:58;;;;;;;;;;;6.40;99.90;;;;;;5114308;28;19928;-73
2022/01/30 13:41:29;;;;;;;;;;;6.40;99.90;;;;;;5114735;28;19930;-74
2022/01/30 13:43:57;;;;;;;;;;;6.50;99.90;;;;;;5114484;28;19945;-74
2022/01/30 13:49:11;;;;;;;;;;;6.50;99.90;;;;;;5114228;28;19931;-73
2022/01/30 13:51:38;;;;;;;;;;;6.40;99.90;;;;;;5114133;28;19927;-72
2022/01/30 13:54:05;;;;;;;;;;;6.40;99.90;;;;;;5113891;28;20359;-73
2022/01/30 13:56:31;;;;;;;;;;;6.40;99.90;;;;;;5095959;28;20331;-73
2022/01/30 13:58:57;;;;;;;;;;;6.40;99.90;;;;;;5114283;28;20014;-73
2022/01/30 14:01:30;;;;;;;;;;;6.30;99.90;;;;;;5093109;28;19924;-73
2022/01/30 14:04:09;;;;;;;;;;;6.40;99.90;;;;;;5111637;28;19924;-73
2022/01/30 14:06:35;;;;;;;;;;;6.40;99.90;;;;;;5112843;28;19927;-75
2022/01/30 14:09:03;;;;;;;;;;;6.30;99.90;;;;;;5112283;28;19924;-75
2022/01/30 14:11:36;;;;;;;;;;;6.30;99.90;;;;;;5113465;28;20374;-75
2022/01/30 14:14:04;;;;;;;;;;;6.30;99.90;;;;;;5114181;28;20072;-75
2022/01/30 14:16:49;;;;;;;;;;;6.30;99.90;;;;;;5113974;28;19923;-74
2022/01/30 14:19:28;;;;;;;;;;;6.40;99.90;;;;;;5114262;28;20330;-76
2022/01/30 14:21:57;;;;;;;;;;;6.40;99.90;;;;;;5114103;28;20010;-75
2022/01/30 14:24:24;;;;;;;;;;;6.50;99.90;;;;;;5113836;28;19923;-74
2022/01/30 14:27:21;;;;;;;;;;;6.50;99.90;;;;;;5113893;28;19971;-73
2022/01/30 14:29:55;;;;;;;;;;;6.50;99.90;;;;;;5031192;28;19991;-75
2022/01/30 14:32:22;;;;;;;;;;;6.40;99.90;;;;;;5014683;28;20003;-75
2022/01/30 14:34:49;;;;;;;;;;;6.40;99.90;;;;;;5031043;28;19925;-74
2022/01/30 14:37:17;;;;;;;;;;;6.30;99.90;;;;;;5031151;28;20423;-73
2022/01/30 14:39:44;;;;;;;;;;;6.30;99.90;;;;;;5030823;28;20032;-74
2022/01/30 14:42:14;;;;;;;;;;;6.30;99.90;;;;;;5031136;28;19926;-75
2022/01/30 14:44:41;;;;;;;;;;;6.20;99.90;;;;;;5031102;28;19980;-74
2022/01/30 14:47:12;;;;;;;;;;;6.20;99.90;;;;;;5030994;28;19948;-73
2022/01/30 14:49:39;;;;;;;;;;;6.10;99.90;;;;;;5031030;28;20292;-73
2022/01/30 14:52:07;;;;;;;;;;;6.20;99.90;;;;;;5030922;28;19925;-73
2022/01/30 14:54:33;;;;;;;;;;;6.10;99.90;;;;;;5030603;28;20419;-73
2022/01/30 14:57:01;;;;;;;;;;;6.10;99.90;;;;;;5030968;28;19925;-74
2022/01/30 14:59:28;;;;;;;;;;;6.00;99.90;;;;;;5031020;28;19929;-74
2022/01/30 15:01:55;;;;;;;;;;;6.00;99.90;;;;;;5031021;28;20002;-75
2022/01/30 15:04:22;;;;;;;;;;;5.90;99.90;;;;;;5030851;28;19984;-75
2022/01/30 15:06:48;;;;;;;;;;;5.90;99.90;;;;;;5063718;28;19947;-74
2022/01/30 15:09:15;;;;;;;;;;;5.80;99.90;;;;;;5071773;28;19928;-75
2022/01/30 15:11:41;;;;;;;;;;;5.70;99.90;;;;;;5072670;28;20029;-74
2022/01/30 15:14:10;;;;;;;;;;;5.60;99.90;;;;;;5073168;28;19929;-74
2022/01/30 15:16:46;;;;;;;;;;;5.50;99.90;;;;;;5073115;28;19924;-76
2022/01/30 15:19:13;;;;;;;;;;;5.50;99.90;;;;;;5073056;28;20394;-74
2022/01/30 15:21:40;;;;;;;;;;;5.40;99.90;;;;;;5074607;28;20357;-75
2022/01/30 15:24:09;;;;;;;;;;;5.40;99.90;;;;;;5076427;28;19924;-75